createdAt,value
2023-05-26T00:00:58.929Z,60.63
2023-05-26T00:11:04.890Z,60.57
2023-05-26T00:21:10.399Z,60.51
2023-05-26T00:31:15.583Z,60.37
2023-05-26T00:41:20.842Z,60.60
2023-05-26T00:51:26.243Z,60.58
2023-05-26T01:01:31.251Z,60.34
2023-05-26T01:11:36.988Z,60.39
2023-05-26T01:21:42.485Z,60.26
2023-05-26T01:31:48.025Z,60.54
2023-05-26T01:41:53.366Z,60.31
2023-05-26T01:51:58.431Z,59.83
2023-05-26T02:02:03.676Z,60.15
2023-05-26T02:12:09.117Z,59.97
2023-05-26T02:22:14.418Z,59.75
2023-05-26T02:32:19.891Z,59.47
2023-05-26T02:42:25.445Z,59.54
2023-05-26T02:52:30.884Z,59.62
2023-05-26T03:02:36.334Z,59.93
2023-05-26T03:12:41.798Z,60.12
2023-05-26T03:22:49.327Z,60.31
2023-05-26T03:32:57.054Z,60.20
2023-05-26T03:43:02.562Z,59.42
2023-05-26T03:53:07.488Z,59.17
2023-05-26T04:03:12.855Z,58.96
2023-05-26T04:13:18.231Z,54.72
2023-05-26T04:23:24.131Z,55.44
2023-05-26T04:33:29.044Z,55.65
2023-05-26T04:43:34.326Z,55.87
2023-05-26T04:53:39.493Z,56.68
2023-05-26T05:03:44.739Z,58.06
2023-05-26T05:13:49.966Z,57.60
2023-05-26T05:23:55.585Z,57.68
2023-05-26T05:34:00.660Z,57.50
2023-05-26T05:44:05.938Z,55.13
2023-05-26T05:54:11.524Z,56.26
2023-05-26T06:04:16.837Z,56.48
2023-05-26T06:14:22.765Z,56.54
2023-05-26T06:24:28.618Z,56.73
2023-05-26T06:34:34.041Z,56.59
2023-05-26T06:44:39.523Z,56.80
2023-05-26T06:54:45.094Z,56.83
2023-05-26T07:04:50.616Z,56.81
2023-05-26T07:14:55.991Z,56.85
2023-05-26T07:25:01.507Z,56.97
2023-05-26T07:35:06.629Z,57.02
2023-05-26T07:45:12.169Z,56.87
2023-05-26T07:55:17.619Z,56.74
2023-05-26T08:05:22.853Z,56.74
2023-05-26T08:15:27.984Z,56.36
2023-05-26T08:25:33.305Z,56.37
2023-05-26T08:35:38.744Z,56.08
2023-05-26T08:45:44.149Z,56.11
2023-05-26T08:55:49.856Z,55.87
2023-05-26T09:05:55.536Z,56.07
2023-05-26T09:16:10.004Z,56.10
2023-05-26T09:26:11.701Z,56.25
2023-05-26T09:36:17.338Z,55.93
2023-05-26T09:46:22.673Z,55.78
2023-05-26T09:56:29.848Z,55.50
2023-05-26T10:06:36.775Z,55.11
2023-05-26T10:16:42.736Z,55.26
2023-05-26T10:26:48.042Z,55.20
2023-05-26T10:36:54.222Z,55.15
2023-05-26T10:46:59.392Z,55.10
2023-05-26T10:57:04.810Z,55.19
2023-05-26T11:07:10.758Z,55.72
2023-05-26T11:17:15.873Z,55.92
2023-05-26T11:27:21.181Z,55.95
2023-05-26T11:37:26.537Z,56.14
2023-05-26T11:47:32.358Z,55.92
2023-05-26T11:57:38.268Z,55.41
2023-05-26T12:07:43.747Z,55.47
2023-05-26T12:17:49.741Z,55.33
2023-05-26T12:27:56.056Z,55.35
2023-05-26T12:38:02.678Z,55.08
2023-05-26T12:48:08.457Z,55.27
2023-05-26T12:58:13.720Z,55.23
2023-05-26T13:08:19.189Z,55.34
2023-05-26T13:18:24.329Z,55.35
2023-05-26T13:28:30.187Z,55.44
2023-05-26T13:38:35.469Z,55.43
2023-05-26T13:48:40.720Z,55.58
2023-05-26T13:58:45.840Z,55.51
2023-05-26T14:08:50.886Z,55.59
2023-05-26T14:19:07.307Z,55.53
2023-05-26T14:29:06.584Z,55.42
2023-05-26T14:39:12.138Z,55.54
2023-05-26T14:49:17.691Z,55.73
2023-05-26T14:59:22.542Z,55.62
2023-05-26T15:09:27.903Z,55.58
2023-05-26T15:19:33.146Z,55.64
2023-05-26T15:29:38.889Z,55.69
2023-05-26T15:39:44.113Z,55.53
2023-05-26T15:49:49.527Z,55.45
2023-05-26T15:59:54.521Z,55.62
2023-05-26T16:10:00.001Z,55.50
2023-05-26T16:20:05.154Z,55.74
2023-05-26T16:30:10.550Z,55.89
2023-05-26T16:40:15.843Z,55.87
2023-05-26T16:50:20.962Z,55.52
2023-05-26T17:00:26.293Z,55.28
2023-05-26T17:10:31.586Z,55.38
2023-05-26T17:20:36.867Z,54.94
2023-05-26T17:30:42.603Z,54.80
2023-05-26T17:40:47.827Z,54.95
2023-05-26T17:50:52.875Z,54.70
2023-05-26T18:00:58.825Z,54.84
2023-05-26T18:11:04.015Z,54.83
2023-05-26T18:21:09.320Z,54.58
2023-05-26T18:31:15.111Z,54.48
2023-05-26T18:41:20.613Z,54.71
2023-05-26T18:51:25.803Z,54.63
2023-05-26T19:01:31.110Z,54.62
2023-05-26T19:11:36.627Z,54.32
2023-05-26T19:21:41.781Z,54.28
2023-05-26T19:31:47.286Z,54.39
2023-05-26T19:41:54.073Z,54.25
2023-05-26T19:51:59.546Z,54.18
2023-05-26T20:02:05.315Z,54.14
2023-05-26T20:12:11.804Z,54.10
2023-05-26T20:22:17.515Z,54.14
2023-05-26T20:32:22.825Z,54.24
2023-05-26T20:42:28.590Z,54.06
2023-05-26T20:52:34.075Z,54.02
2023-05-26T21:02:39.383Z,54.00
2023-05-26T21:12:44.763Z,53.81
2023-05-26T21:22:50.603Z,53.74
2023-05-26T21:32:56.246Z,53.74
2023-05-26T21:43:01.782Z,53.73
2023-05-26T21:53:06.874Z,53.63
2023-05-26T22:03:12.242Z,53.43
2023-05-26T22:13:17.935Z,53.41
2023-05-26T22:23:23.579Z,53.40
2023-05-26T22:33:29.030Z,53.44
2023-05-26T22:43:34.512Z,53.25
2023-05-26T22:53:39.869Z,53.34
2023-05-26T23:03:45.537Z,53.16
2023-05-26T23:13:51.306Z,53.05
2023-05-26T23:23:56.265Z,53.11
2023-05-26T23:34:01.731Z,53.05
2023-05-26T23:44:06.752Z,53.04
2023-05-26T23:54:11.801Z,52.88
